Time;durP1;ratioP1;P1;durP2;ratioP2;P2;SDS_P1;SDS_P2;PMS_P1;PMS_P2;Temp;Humidity;BMP_temperature;BMP_pressure;BME280_temperature;BME280_humidity;BME280_pressure;Samples;Min_cycle;Max_cycle;Signal;HPM_P1;HPM_P2
2022/06/15 00:03:36;;;;;;;4.73;2.37;;;;;12.60;101372.00;;;;10215527;29;20194;-79
2022/06/15 00:08:39;;;;;;;5.63;2.23;;;;;12.50;101359.00;;;;10195476;28;20222;-79
2022/06/15 00:13:43;;;;;;;6.77;2.60;;;;;12.50;101363.00;;;;10224184;28;20292;-79
2022/06/15 00:18:46;;;;;;;7.27;2.33;;;;;12.40;101362.00;;;;10246137;28;20228;-79
2022/06/15 00:23:48;;;;;;;6.90;3.37;;;;;12.30;101361.00;;;;10246952;29;20204;-79
2022/06/15 00:28:53;;;;;;;5.27;2.40;;;;;12.30;101360.00;;;;10230594;29;20227;-78
2022/06/15 00:33:56;;;;;;;7.93;2.60;;;;;12.20;101363.00;;;;10225379;28;20217;-79
2022/06/15 00:38:59;;;;;;;7.10;3.10;;;;;12.20;101364.00;;;;10229615;28;21849;-78
2022/06/15 00:44:21;;;;;;;6.40;2.80;;;;;12.10;101356.00;;;;10227605;28;20466;-78
2022/06/15 00:49:40;;;;;;;3.20;2.30;;;;;12.00;101349.00;;;;10229010;28;20193;-77
2022/06/15 00:54:45;;;;;;;3.47;2.87;;;;;11.90;101342.00;;;;10244728;28;20217;-78
2022/06/15 00:59:59;;;;;;;4.33;2.40;;;;;11.90;101344.00;;;;10231545;28;20204;-77
2022/06/15 01:05:15;;;;;;;4.27;2.70;;;;;11.70;101337.00;;;;10229915;28;20186;-78
2022/06/15 01:10:29;;;;;;;4.10;2.30;;;;;11.50;101342.00;;;;10235694;28;20225;-78
2022/06/15 01:15:54;;;;;;;8.33;2.93;;;;;11.40;101333.00;;;;10195521;28;20201;-77
2022/06/15 01:21:38;;;;;;;6.07;2.73;;;;;11.40;101326.00;;;;10211163;28;20189;-79
2022/06/15 01:26:52;;;;;;;5.73;2.87;;;;;11.40;101331.00;;;;10179747;29;20613;-77
2022/06/15 01:32:03;;;;;;;5.10;2.90;;;;;11.30;101321.00;;;;10210650;29;20672;-78
2022/06/15 01:37:16;;;;;;;3.70;2.80;;;;;11.30;101322.00;;;;10206179;28;20187;-78
2022/06/15 01:42:38;;;;;;;6.87;3.30;;;;;11.20;101313.00;;;;10225152;29;20260;-77
2022/06/15 01:47:44;;;;;;;4.13;2.73;;;;;11.10;101305.00;;;;10227679;28;20210;-79
2022/06/15 01:52:52;;;;;;;3.67;2.73;;;;;11.10;101311.00;;;;10225832;28;20197;-78
2022/06/15 01:58:02;;;;;;;6.73;3.23;;;;;11.00;101311.00;;;;10227664;28;20208;-78
2022/06/15 02:03:26;;;;;;;4.00;2.67;;;;;11.00;101303.00;;;;10210662;28;20200;-77
2022/06/15 02:08:41;;;;;;;6.37;2.97;;;;;10.90;101307.00;;;;10232904;28;20229;-78
2022/06/15 02:14:17;;;;;;;6.30;3.10;;;;;10.80;101306.00;;;;10212642;28;20317;-79
2022/06/15 02:19:39;;;;;;;9.40;3.50;;;;;10.70;101298.00;;;;10242069;28;20244;-79
2022/06/15 02:24:44;;;;;;;7.40;3.23;;;;;10.70;101302.00;;;;10210378;28;20661;-78
2022/06/15 02:29:50;;;;;;;11.17;3.53;;;;;10.60;101303.00;;;;10226919;28;20230;-78
2022/06/15 02:34:52;;;;;;;8.50;3.53;;;;;10.60;101304.00;;;;10223367;29;20229;-79
2022/06/15 02:39:55;;;;;;;5.37;3.10;;;;;10.50;101301.00;;;;10234482;28;20719;-78
2022/06/15 02:45:28;;;;;;;4.73;2.97;;;;;10.40;101306.00;;;;10217132;28;20191;-79
2022/06/15 02:50:40;;;;;;;7.73;3.50;;;;;10.30;101299.00;;;;10213529;28;20316;-78
2022/06/15 02:55:44;;;;;;;7.43;3.63;;;;;10.30;101297.00;;;;10243711;29;20205;-77
2022/06/15 03:00:46;;;;;;;6.20;3.63;;;;;10.30;101295.00;;;;10218831;29;20273;-79
2022/06/15 03:05:52;;;;;;;5.23;3.10;;;;;10.30;101298.00;;;;10230470;28;20217;-79
2022/06/15 03:10:54;;;;;;;5.70;3.30;;;;;10.30;101302.00;;;;10233141;29;20245;-79
2022/06/15 03:16:01;;;;;;;6.40;3.50;;;;;10.20;101299.00;;;;10232268;29;20189;-78
2022/06/15 03:21:04;;;;;;;5.30;3.40;;;;;10.20;101303.00;;;;10212509;28;20198;-77
2022/06/15 03:26:07;;;;;;;8.93;3.73;;;;;10.20;101289.00;;;;10215863;28;20197;-77
2022/06/15 03:31:11;;;;;;;8.63;4.07;;;;;10.20;101303.00;;;;10231982;28;20239;-78
2022/06/15 03:36:15;;;;;;;10.13;4.20;;;;;10.20;101304.00;;;;10228644;28;20196;-78
2022/06/15 03:41:20;;;;;;;10.77;4.13;;;;;10.20;101307.00;;;;10238212;28;20190;-79
2022/06/15 03:46:24;;;;;;;6.97;4.30;;;;;10.20;101304.00;;;;10216482;28;20198;-79
2022/06/15 03:51:32;;;;;;;7.97;3.90;;;;;10.30;101310.00;;;;10247239;28;20252;-77
2022/06/15 03:56:46;;;;;;;6.40;3.70;;;;;10.40;101306.00;;;;10211286;28;20672;-78
2022/06/15 04:01:53;;;;;;;6.43;4.17;;;;;10.40;101304.00;;;;10229768;28;20603;-79
2022/06/15 04:06:56;;;;;;;7.47;3.40;;;;;10.50;101306.00;;;;10231201;28;20240;-79
2022/06/15 04:12:08;;;;;;;7.40;4.20;;;;;10.70;101303.00;;;;10231996;28;20217;-78
2022/06/15 04:17:15;;;;;;;8.30;5.10;;;;;11.10;101298.00;;;;10213725;28;20222;-78
2022/06/15 04:22:43;;;;;;;5.60;4.33;;;;;11.30;101308.00;;;;10201614;28;20808;-79
2022/06/15 04:27:47;;;;;;;5.93;4.20;;;;;11.50;101299.00;;;;10227336;28;20206;-79
2022/06/15 04:32:51;;;;;;;8.60;5.83;;;;;11.70;101295.00;;;;10233419;28;20193;-78
2022/06/15 04:37:59;;;;;;;10.70;5.17;;;;;11.90;101304.00;;;;10235193;28;20213;-79
2022/06/15 04:43:09;;;;;;;8.53;4.63;;;;;12.00;101306.00;;;;10258267;28;20764;-78
2022/06/15 04:48:11;;;;;;;6.37;4.23;;;;;12.20;101310.00;;;;10248730;28;20200;-79
2022/06/15 04:53:15;;;;;;;7.17;4.60;;;;;12.30;101318.00;;;;10227584;28;20244;-79
2022/06/15 04:58:23;;;;;;;9.73;5.50;;;;;12.60;101319.00;;;;10220312;28;20221;-80
2022/06/15 05:03:32;;;;;;;9.17;5.40;;;;;13.00;101320.00;;;;10219843;28;20239;-80
2022/06/15 05:08:37;;;;;;;9.97;5.87;;;;;13.60;101322.00;;;;10211711;28;20216;-80
2022/06/15 05:13:39;;;;;;;10.33;6.60;;;;;14.20;101321.00;;;;10243098;28;20295;-81
2022/06/15 05:18:43;;;;;;;10.97;6.10;;;;;14.80;101315.00;;;;10231512;28;20202;-81
2022/06/15 05:23:54;;;;;;;11.97;6.57;;;;;15.40;101325.00;;;;10212148;28;20212;-81
2022/06/15 05:29:10;;;;;;;11.27;7.10;;;;;15.90;101316.00;;;;10202994;28;20292;-80
2022/06/15 05:34:19;;;;;;;7.87;5.93;;;;;16.40;101321.00;;;;10207868;28;20205;-80
2022/06/15 05:39:21;;;;;;;9.33;6.17;;;;;16.90;101313.00;;;;10216881;28;20824;-80
2022/06/15 05:49:43;;;;;;;9.20;5.40;;;;;17.70;101322.00;;;;10238514;28;20245;-80
2022/06/15 05:54:47;;;;;;;10.13;5.78;;;;;18.30;101323.00;;;;10203771;29;20205;-81
2022/06/15 05:59:50;;;;;;;10.27;5.45;;;;;18.80;101328.00;;;;10206435;29;20205;-81
2022/06/15 06:04:52;;;;;;;9.40;5.82;;;;;19.20;101324.00;;;;10211169;29;20205;-81
2022/06/15 06:09:54;;;;;;;8.80;5.70;;;;;19.40;101326.00;;;;10220138;28;20209;-80
2022/06/15 06:14:56;;;;;;;14.13;5.78;;;;;19.90;101327.00;;;;10220495;28;20185;-80
2022/06/15 06:19:58;;;;;;;7.70;5.70;;;;;20.10;101317.00;;;;10216871;29;20198;-80
2022/06/15 06:25:00;;;;;;;9.50;5.40;;;;;20.20;101329.00;;;;10257159;28;20193;-80
2022/06/15 06:30:04;;;;;;;11.32;5.22;;;;;20.60;101328.00;;;;10263754;28;20228;-80
2022/06/15 06:35:07;;;;;;;7.25;5.60;;;;;21.00;101335.00;;;;10235498;28;20193;-80
2022/06/15 06:40:13;;;;;;;7.50;5.68;;;;;21.60;101335.00;;;;10250458;28;20248;-80
2022/06/15 06:45:14;;;;;;;11.27;5.68;;;;;22.10;101344.00;;;;10238109;28;20280;-80
2022/06/15 06:50:17;;;;;;;11.20;5.20;;;;;22.40;101338.00;;;;10211636;28;20226;-82
2022/06/15 06:55:20;;;;;;;8.70;5.43;;;;;22.60;101345.00;;;;10232296;28;20221;-81
2022/06/15 07:00:22;;;;;;;9.95;5.53;;;;;22.90;101342.00;;;;10198049;28;20225;-81
2022/06/15 07:05:25;;;;;;;7.95;5.90;;;;;23.10;101344.00;;;;10244234;28;20220;-79
2022/06/15 07:10:27;;;;;;;10.27;6.15;;;;;23.10;101346.00;;;;10230521;28;20248;-81
2022/06/15 07:15:30;;;;;;;9.77;5.50;;;;;23.40;101342.00;;;;10222248;28;20277;-80
2022/06/15 07:20:32;;;;;;;12.43;5.53;;;;;23.80;101347.00;;;;10224891;28;20186;-80
2022/06/15 07:25:34;;;;;;;12.25;5.55;;;;;24.50;101351.00;;;;10220440;28;20217;-80
2022/06/15 07:30:36;;;;;;;6.70;4.95;;;;;25.00;101348.00;;;;10224939;28;20271;-80
2022/06/15 07:35:39;;;;;;;8.63;5.63;;;;;25.50;101368.00;;;;10227063;28;20225;-80
2022/06/15 07:40:41;;;;;;;7.35;5.13;;;;;25.90;101374.00;;;;10233045;28;20199;-80
2022/06/15 07:45:46;;;;;;;7.72;5.32;;;;;26.00;101364.00;;;;10248957;28;20178;-80
2022/06/15 07:50:48;;;;;;;10.80;5.70;;;;;26.00;101368.00;;;;10245496;28;20212;-78
2022/06/15 07:55:52;;;;;;;10.02;5.40;;;;;26.20;101352.00;;;;10260690;28;20192;-80
2022/06/15 08:00:55;;;;;;;10.10;5.60;;;;;26.60;101357.00;;;;10216412;28;20208;-80
2022/06/15 08:05:58;;;;;;;9.52;5.50;;;;;26.90;101352.00;;;;10228102;28;20260;-78
2022/06/15 08:11:00;;;;;;;7.88;4.70;;;;;27.30;101347.00;;;;10235071;28;20209;-80
2022/06/15 08:16:02;;;;;;;9.18;5.15;;;;;27.60;101355.00;;;;10231118;29;20197;-80
2022/06/15 08:21:10;;;;;;;7.07;4.38;;;;;27.80;101357.00;;;;10210728;28;20238;-80
2022/06/15 08:26:17;;;;;;;10.00;5.35;;;;;28.20;101367.00;;;;10239322;28;20637;-78
2022/06/15 08:31:19;;;;;;;9.55;5.00;;;;;28.60;101363.00;;;;10208769;28;20189;-77
2022/06/15 08:36:21;;;;;;;10.25;4.68;;;;;28.90;101358.00;;;;10220955;28;20213;-79
2022/06/15 08:41:23;;;;;;;6.97;4.57;;;;;29.10;101345.00;;;;10232427;28;20217;-78
2022/06/15 08:46:31;;;;;;;13.23;5.70;;;;;29.60;101346.00;;;;10236513;28;20186;-77
2022/06/15 08:51:38;;;;;;;8.63;4.97;;;;;30.10;101334.00;;;;10217742;28;20221;-78
2022/06/15 08:56:43;;;;;;;10.10;4.43;;;;;30.40;101341.00;;;;10211082;28;20558;-79
2022/06/15 09:01:59;;;;;;;8.93;4.88;;;;;30.50;101334.00;;;;10179658;28;20216;-79
2022/06/15 09:07:00;;;;;;;13.13;4.85;;;;;30.70;101334.00;;;;10245538;28;20280;-78
2022/06/15 09:17:40;;;;;;;11.40;4.13;;;;;31.50;101337.00;;;;10234615;28;20256;-79
2022/06/15 09:22:56;;;;;;;10.05;5.05;;;;;31.90;101340.00;;;;10238811;28;20273;-78
2022/06/15 09:28:07;;;;;;;11.15;4.55;;;;;31.60;101344.00;;;;10208699;28;20284;-78
2022/06/15 09:33:32;;;;;;;7.32;4.15;;;;;32.00;101341.00;;;;10255450;28;20214;-79
2022/06/15 09:38:35;;;;;;;10.15;4.57;;;;;31.80;101340.00;;;;10201375;28;20280;-79
2022/06/15 09:43:54;;;;;;;11.32;4.50;;;;;32.00;101327.00;;;;10233390;28;20197;-79
2022/06/15 09:49:11;;;;;;;11.85;3.88;;;;;32.00;101319.00;;;;10199079;28;20534;-78
2022/06/15 09:54:41;;;;;;;13.65;5.47;;;;;32.10;101327.00;;;;10195041;28;20206;-80
2022/06/15 09:59:43;;;;;;;10.27;3.80;;;;;32.20;101327.00;;;;10238190;28;20652;-79
2022/06/15 10:04:45;;;;;;;8.25;4.13;;;;;32.60;101329.00;;;;10204819;28;20201;-78
2022/06/15 10:09:55;;;;;;;10.38;4.63;;;;;32.60;101335.00;;;;10202965;28;20312;-78
2022/06/15 10:15:05;;;;;;;9.65;4.05;;;;;32.50;101329.00;;;;10200889;28;20200;-79
2022/06/15 10:20:21;;;;;;;11.68;4.32;;;;;32.60;101327.00;;;;10244102;28;20201;-77
2022/06/15 10:25:23;;;;;;;10.43;4.53;;;;;32.40;101322.00;;;;10214410;28;20220;-78
2022/06/15 10:30:25;;;;;;;8.35;4.20;;;;;32.60;101317.00;;;;10205639;28;20202;-79
2022/06/15 10:35:34;;;;;;;7.55;3.25;;;;;32.70;101311.00;;;;10216650;28;20236;-78
2022/06/15 10:40:38;;;;;;;7.35;3.90;;;;;33.10;101316.00;;;;10255655;28;20205;-77
2022/06/15 10:45:52;;;;;;;11.93;3.67;;;;;33.20;101309.00;;;;10233161;29;20197;-78
2022/06/15 10:51:07;;;;;;;9.02;3.88;;;;;33.30;101312.00;;;;10207225;28;20190;-78
2022/06/15 11:02:06;;;;;;;7.85;4.18;;;;;33.60;101296.00;;;;10225991;28;20225;-79
2022/06/15 11:07:24;;;;;;;10.65;3.90;;;;;34.20;101293.00;;;;10234070;28;20229;-79
2022/06/15 11:12:29;;;;;;;8.60;3.33;;;;;34.40;101298.00;;;;10210954;28;20205;-79
2022/06/15 11:23:02;;;;;;;8.35;3.03;;;;;34.40;101292.00;;;;10236903;28;20217;-77
2022/06/15 11:28:09;;;;;;;7.97;3.10;;;;;34.50;101289.00;;;;10253705;28;20221;-77
2022/06/15 11:33:43;;;;;;;7.63;3.30;;;;;34.80;101293.00;;;;10214664;29;20253;-78
2022/06/15 11:38:53;;;;;;;8.00;3.28;;;;;34.50;101281.00;;;;10235104;28;20217;-79
2022/06/15 11:43:57;;;;;;;6.80;3.10;;;;;34.80;101287.00;;;;10213588;29;20206;-80
2022/06/15 11:49:02;;;;;;;8.00;3.70;;;;;34.80;101275.00;;;;10230319;28;20193;-79
2022/06/15 11:54:28;;;;;;;8.05;3.78;;;;;34.50;101281.00;;;;10235300;28;20236;-79
2022/06/15 11:59:30;;;;;;;7.28;3.40;;;;;34.60;101284.00;;;;10184138;28;20676;-79
2022/06/15 12:05:00;;;;;;;6.20;3.20;;;;;35.00;101274.00;;;;10210101;28;20213;-78
2022/06/15 12:10:30;;;;;;;9.43;3.20;;;;;34.90;101276.00;;;;10263856;28;20249;-79
2022/06/15 12:15:41;;;;;;;7.15;2.47;;;;;35.30;101275.00;;;;10259989;28;20201;-79
2022/06/15 12:21:02;;;;;;;9.13;3.00;;;;;35.00;101268.00;;;;10231545;28;20621;-79
2022/06/15 12:26:23;;;;;;;4.38;2.55;;;;;34.90;101277.00;;;;10225970;28;20633;-79
2022/06/15 12:31:48;;;;;;;9.90;3.38;;;;;34.80;101266.00;;;;10245328;28;20263;-79
2022/06/15 12:36:57;;;;;;;8.25;2.97;;;;;34.40;101273.00;;;;10244102;28;20219;-78
2022/06/15 12:42:22;;;;;;;6.70;3.40;;;;;34.60;101272.00;;;;10237593;28;20300;-79
2022/06/15 12:47:26;;;;;;;10.07;3.22;;;;;34.70;101262.00;;;;10231189;28;20564;-80
2022/06/15 12:52:49;;;;;;;6.85;2.75;;;;;34.80;101264.00;;;;10254942;28;20285;-79
2022/06/15 12:58:03;;;;;;;5.20;2.65;;;;;34.70;101270.00;;;;10214410;28;20205;-79
2022/06/15 13:03:17;;;;;;;7.18;2.35;;;;;34.60;101263.00;;;;10207460;28;20325;-80
2022/06/15 13:08:25;;;;;;;6.38;2.80;;;;;34.50;101258.00;;;;10235907;28;20229;-79
2022/06/15 13:13:39;;;;;;;7.32;2.45;;;;;34.70;101257.00;;;;10236483;28;20227;-79
2022/06/15 13:18:49;;;;;;;7.75;2.83;;;;;34.90;101251.00;;;;10209424;28;20202;-80
2022/06/15 13:24:09;;;;;;;5.80;2.80;;;;;35.10;101249.00;;;;10226721;28;20720;-80
2022/06/15 13:29:11;;;;;;;6.80;2.53;;;;;35.00;101244.00;;;;10244511;28;20264;-80
2022/06/15 13:34:15;;;;;;;4.93;2.45;;;;;34.90;101241.00;;;;10223262;28;20208;-79
2022/06/15 13:39:43;;;;;;;8.48;2.40;;;;;35.00;101248.00;;;;10245494;28;20193;-79
2022/06/15 13:44:53;;;;;;;6.70;2.45;;;;;35.20;101255.00;;;;10216206;28;20264;-79
2022/06/15 13:50:00;;;;;;;4.68;2.13;;;;;35.40;101254.00;;;;10218896;28;20205;-79
2022/06/15 13:55:31;;;;;;;5.47;2.17;;;;;35.70;101261.00;;;;10234496;28;20189;-79
2022/06/15 14:01:11;;;;;;;7.07;3.10;;;;;34.90;101265.00;;;;10238365;28;20220;-78
2022/06/15 14:06:25;;;;;;;4.45;2.30;;;;;34.40;101270.00;;;;10213436;28;20234;-78
2022/06/15 14:11:39;;;;;;;7.97;2.65;;;;;34.00;101276.00;;;;10246282;28;20182;-79
2022/06/15 14:17:06;;;;;;;3.47;2.17;;;;;34.50;101248.00;;;;10227421;29;20196;-79
2022/06/15 14:22:18;;;;;;;5.30;2.28;;;;;33.20;101265.00;;;;10234669;29;20220;-79
2022/06/15 14:27:27;;;;;;;7.20;2.80;;;;;32.80;101261.00;;;;10214059;28;20194;-78
2022/06/15 14:32:35;;;;;;;4.47;2.38;;;;;36.60;101237.00;;;;10226034;28;20546;-79
2022/06/15 14:37:39;;;;;;;3.10;2.22;;;;;38.50;101236.00;;;;10223556;28;20186;-78
2022/06/15 14:42:56;;;;;;;16.85;2.95;;;;;39.10;101240.00;;;;10231088;28;20261;-79
2022/06/15 14:48:03;;;;;;;4.63;2.17;;;;;38.90;101248.00;;;;10228662;29;20200;-78
2022/06/15 14:53:23;;;;;;;4.40;2.42;;;;;38.00;101255.00;;;;10258758;28;20190;-79
2022/06/15 14:58:25;;;;;;;4.82;2.45;;;;;37.60;101230.00;;;;10256580;28;20540;-78
2022/06/15 15:03:31;;;;;;;6.13;2.20;;;;;38.10;101242.00;;;;10254431;28;20304;-79
2022/06/15 15:08:33;;;;;;;4.50;2.28;;;;;37.80;101254.00;;;;10247013;28;20229;-79
2022/06/15 15:13:56;;;;;;;4.55;2.33;;;;;34.90;101240.00;;;;10248448;28;20217;-77
2022/06/15 15:19:04;;;;;;;6.40;2.80;;;;;34.00;101246.00;;;;10227989;28;20193;-78
2022/06/15 15:24:12;;;;;;;6.70;2.17;;;;;34.70;101244.00;;;;10228862;28;20204;-78
2022/06/15 15:35:02;;;;;;;6.93;2.75;;;;;32.10;101239.00;;;;10218564;28;20284;-78
2022/06/15 15:40:09;;;;;;;6.28;3.03;;;;;31.70;101234.00;;;;10219470;28;20213;-78
2022/06/15 15:45:14;;;;;;;7.72;4.60;;;;;31.40;101217.00;;;;10215426;28;20273;-78
2022/06/15 15:50:18;;;;;;;6.93;3.05;;;;;31.40;101217.00;;;;10208650;28;20221;-78
2022/06/15 15:55:21;;;;;;;6.35;2.55;;;;;31.10;101216.00;;;;10226410;28;20197;-78
2022/06/15 16:00:27;;;;;;;5.85;2.40;;;;;30.30;101206.00;;;;10224252;28;20212;-79
2022/06/15 16:05:29;;;;;;;8.32;2.45;;;;;30.30;101213.00;;;;10229172;28;20218;-78
2022/06/15 16:10:36;;;;;;;6.55;2.70;;;;;30.20;101198.00;;;;10224342;28;20189;-79
2022/06/15 16:15:41;;;;;;;5.13;2.40;;;;;29.90;101197.00;;;;10217456;28;20223;-79
2022/06/15 16:20:44;;;;;;;8.18;3.30;;;;;29.50;101202.00;;;;10220624;28;20217;-79
2022/06/15 16:25:47;;;;;;;6.57;2.13;;;;;29.00;101193.00;;;;10235741;28;20737;-77
2022/06/15 16:30:49;;;;;;;9.48;2.92;;;;;29.20;101196.00;;;;10266523;28;20539;-78
2022/06/15 16:35:52;;;;;;;5.88;2.38;;;;;29.60;101202.00;;;;10225847;29;20194;-77
2022/06/15 16:41:08;;;;;;;8.18;2.97;;;;;29.80;101197.00;;;;10258670;29;20205;-79
2022/06/15 16:46:13;;;;;;;8.20;2.47;;;;;29.80;101195.00;;;;10284991;28;20204;-79
2022/06/15 16:51:18;;;;;;;6.18;2.90;;;;;29.40;101197.00;;;;10257843;28;20208;-79
2022/06/15 16:56:31;;;;;;;5.75;2.60;;;;;29.00;101190.00;;;;10227901;28;20276;-79
2022/06/15 17:01:33;;;;;;;7.95;3.08;;;;;28.50;101194.00;;;;10252224;28;20621;-80
2022/06/15 17:06:37;;;;;;;3.80;2.33;;;;;28.10;101191.00;;;;10194400;29;20225;-79
2022/06/15 17:11:47;;;;;;;3.92;2.67;;;;;27.90;101197.00;;;;10228791;29;20287;-78
2022/06/15 17:16:49;;;;;;;5.43;2.50;;;;;27.80;101191.00;;;;10227069;29;20194;-79
2022/06/15 17:21:52;;;;;;;6.45;2.83;;;;;27.50;101182.00;;;;10258722;29;20232;-79
2022/06/15 17:27:14;;;;;;;3.97;2.22;;;;;27.40;101190.00;;;;10227522;29;20190;-80
2022/06/15 17:32:16;;;;;;;2.55;2.15;;;;;27.10;101193.00;;;;10230935;29;20811;-79
2022/06/15 17:37:20;;;;;;;6.43;2.40;;;;;26.90;101200.00;;;;10223359;29;20195;-80
2022/06/15 17:42:22;;;;;;;4.70;2.33;;;;;26.90;101190.00;;;;10230579;29;20240;-78
2022/06/15 17:47:24;;;;;;;4.13;2.47;;;;;26.80;101190.00;;;;10243956;29;20269;-79
2022/06/15 17:52:27;;;;;;;5.20;2.60;;;;;26.70;101177.00;;;;10224651;29;20201;-79
2022/06/15 17:57:29;;;;;;;6.55;2.50;;;;;26.60;101175.00;;;;10199963;29;20203;-78
2022/06/15 18:02:31;;;;;;;7.03;2.40;;;;;26.70;101187.00;;;;10232191;28;20593;-79
2022/06/15 18:07:34;;;;;;;8.23;2.72;;;;;26.70;101189.00;;;;10223557;28;20324;-79
2022/06/15 18:12:39;;;;;;;9.98;2.67;;;;;26.50;101189.00;;;;10209033;29;20216;-79
2022/06/15 18:17:51;;;;;;;4.60;2.47;;;;;26.30;101188.00;;;;10190255;28;20649;-79
2022/06/15 18:22:53;;;;;;;3.47;2.40;;;;;26.20;101182.00;;;;10222483;29;20206;-80
2022/06/15 18:27:55;;;;;;;5.65;3.00;;;;;26.10;101187.00;;;;10209808;29;20198;-78
2022/06/15 18:32:58;;;;;;;5.63;2.38;;;;;25.90;101194.00;;;;10239698;28;20196;-77
2022/06/15 18:38:04;;;;;;;4.60;2.60;;;;;25.60;101189.00;;;;10224759;29;20225;-78
2022/06/15 18:48:29;;;;;;;6.90;2.53;;;;;25.00;101198.00;;;;10213045;29;20225;-78
2022/06/15 18:53:31;;;;;;;7.45;2.60;;;;;24.80;101195.00;;;;10244936;29;20232;-78
2022/06/15 18:58:35;;;;;;;4.72;2.25;;;;;24.70;101186.00;;;;10241900;29;20197;-77
2022/06/15 19:03:37;;;;;;;6.70;2.80;;;;;24.50;101181.00;;;;10240113;28;20239;-78
2022/06/15 19:08:40;;;;;;;4.75;2.67;;;;;24.20;101197.00;;;;10229663;28;20642;-78
2022/06/15 19:13:42;;;;;;;5.78;2.70;;;;;24.00;101208.00;;;;10227907;28;20217;-77
2022/06/15 19:18:45;;;;;;;8.00;2.90;;;;;23.80;101213.00;;;;10245541;29;20201;-79
2022/06/15 19:23:48;;;;;;;4.80;2.65;;;;;23.70;101218.00;;;;10230745;29;20206;-78
2022/06/15 19:28:49;;;;;;;7.25;2.33;;;;;23.50;101217.00;;;;10246933;28;20225;-78
2022/06/15 19:33:52;;;;;;;6.38;2.50;;;;;23.20;101230.00;;;;10238467;28;20258;-78
2022/06/15 19:38:54;;;;;;;7.55;2.90;;;;;22.80;101241.00;;;;10252864;28;20597;-79
2022/06/15 19:43:56;;;;;;;5.53;2.70;;;;;22.60;101242.00;;;;10190427;29;20277;-78
2022/06/15 19:49:03;;;;;;;4.32;2.67;;;;;22.30;101238.00;;;;10187277;29;20198;-77
2022/06/15 19:54:06;;;;;;;6.38;2.92;;;;;22.10;101245.00;;;;10239260;29;20256;-77
2022/06/15 19:59:08;;;;;;;7.43;2.65;;;;;21.90;101249.00;;;;10225504;29;20224;-77
2022/06/15 20:04:10;;;;;;;5.03;2.78;;;;;21.80;101260.00;;;;10219518;28;20576;-77
2022/06/15 20:09:13;;;;;;;5.63;2.78;;;;;21.70;101266.00;;;;10221714;28;20226;-77
2022/06/15 20:14:15;;;;;;;4.93;2.35;;;;;21.50;101269.00;;;;10234405;28;20194;-79
2022/06/15 20:19:18;;;;;;;9.02;2.75;;;;;21.30;101270.00;;;;10229001;28;20194;-77
2022/06/15 20:24:26;;;;;;;4.30;2.60;;;;;21.00;101260.00;;;;10246174;29;20229;-79
2022/06/15 20:29:29;;;;;;;3.70;2.35;;;;;20.80;101271.00;;;;10223779;28;20284;-78
2022/06/15 20:34:31;;;;;;;5.53;2.72;;;;;20.50;101291.00;;;;10203969;29;20196;-77
2022/06/15 20:39:33;;;;;;;5.65;2.75;;;;;20.40;101301.00;;;;10225324;28;20229;-78
2022/06/15 20:44:36;;;;;;;8.60;3.15;;;;;20.30;101297.00;;;;10226059;28;20190;-78
2022/06/15 20:49:44;;;;;;;6.05;2.95;;;;;20.20;101312.00;;;;10200314;28;20194;-77
2022/06/15 20:54:48;;;;;;;7.60;2.35;;;;;20.10;101307.00;;;;10254630;28;20194;-78
2022/06/15 20:59:51;;;;;;;5.80;2.60;;;;;20.00;101314.00;;;;10208823;28;20241;-78
2022/06/15 21:04:53;;;;;;;7.90;2.80;;;;;20.00;101307.00;;;;10240246;29;20198;-78
2022/06/15 21:20:37;;;;;;;5.80;2.85;;;;;19.90;101324.00;;;;10221867;28;20202;-77
2022/06/15 21:25:39;;;;;;;5.90;2.58;;;;;19.90;101319.00;;;;10219553;28;20253;-77
2022/06/15 21:30:43;;;;;;;4.75;2.10;;;;;20.00;101325.00;;;;10241501;28;20232;-78
2022/06/15 21:35:46;;;;;;;7.32;2.55;;;;;20.00;101326.00;;;;10205410;28;20223;-79
2022/06/15 21:40:49;;;;;;;6.47;2.70;;;;;20.10;101326.00;;;;10224615;29;20269;-80
2022/06/15 21:45:51;;;;;;;4.43;2.55;;;;;20.10;101329.00;;;;10226728;28;20201;-79
2022/06/15 21:50:54;;;;;;;7.82;2.50;;;;;20.00;101332.00;;;;10231324;28;20202;-79
2022/06/15 21:55:56;;;;;;;5.22;2.78;;;;;20.00;101326.00;;;;10223013;28;20664;-78
2022/06/15 22:01:00;;;;;;;9.38;2.78;;;;;20.00;101340.00;;;;10227427;28;20201;-79
2022/06/15 22:06:02;;;;;;;6.25;2.65;;;;;19.90;101336.00;;;;10205778;28;20213;-78
2022/06/15 22:11:05;;;;;;;6.63;3.00;;;;;19.80;101336.00;;;;10189099;28;20186;-79
2022/06/15 22:16:08;;;;;;;5.38;3.17;;;;;19.70;101333.00;;;;10237625;28;20733;-78
2022/06/15 22:21:20;;;;;;;5.75;3.10;;;;;19.60;101317.00;;;;10203654;28;20743;-79
2022/06/15 22:26:23;;;;;;;8.75;3.28;;;;;19.60;101329.00;;;;10223297;28;20201;-79
2022/06/15 22:31:25;;;;;;;4.40;2.90;;;;;19.50;101326.00;;;;10222585;28;20190;-78
2022/06/15 22:36:27;;;;;;;4.88;3.35;;;;;19.40;101346.00;;;;10221871;29;20200;-79
2022/06/15 22:41:29;;;;;;;9.45;3.47;;;;;19.20;101350.00;;;;10197509;28;20206;-79
2022/06/15 22:46:31;;;;;;;5.65;3.30;;;;;19.10;101341.00;;;;10237393;28;20204;-79
2022/06/15 22:51:34;;;;;;;8.23;3.65;;;;;19.00;101334.00;;;;10212406;28;20190;-79
2022/06/15 22:56:36;;;;;;;5.95;3.28;;;;;18.80;101326.00;;;;10210748;28;20187;-80
2022/06/15 23:01:38;;;;;;;6.68;3.65;;;;;18.70;101316.00;;;;10219983;28;20292;-79
2022/06/15 23:06:40;;;;;;;6.05;2.85;;;;;18.60;101323.00;;;;10224870;29;20618;-79
2022/06/15 23:11:42;;;;;;;6.57;3.20;;;;;18.60;101329.00;;;;10205224;28;20662;-78
2022/06/15 23:16:45;;;;;;;6.95;3.47;;;;;18.40;101334.00;;;;10246212;28;20193;-79
2022/06/15 23:21:47;;;;;;;4.60;3.80;;;;;18.20;101344.00;;;;10245401;28;20217;-78
2022/06/15 23:26:50;;;;;;;4.13;3.30;;;;;18.10;101344.00;;;;10225426;28;20711;-79
2022/06/15 23:31:52;;;;;;;4.40;3.38;;;;;18.00;101355.00;;;;10232580;28;20232;-78
2022/06/15 23:36:54;;;;;;;4.03;3.63;;;;;17.80;101345.00;;;;10222148;28;20293;-79
2022/06/15 23:42:02;;;;;;;8.00;3.90;;;;;17.60;101344.00;;;;10253737;28;20210;-79
2022/06/15 23:52:41;;;;;;;7.77;4.70;;;;;17.40;101345.00;;;;10171818;28;20205;-80
2022/06/15 23:57:43;;;;;;;9.43;4.53;;;;;17.30;101341.00;;;;10242163;29;20260;-79
